createdAt,value
2022-10-24T00:00:15.508Z,97947.88
2022-10-24T00:02:42.187Z,97942.00
2022-10-24T00:05:09.095Z,97938.78
2022-10-24T00:07:35.585Z,97947.22
2022-10-24T00:10:02.076Z,97959.13
2022-10-24T00:12:28.636Z,97969.66
2022-10-24T00:14:55.170Z,97964.41
2022-10-24T00:17:21.757Z,97958.38
2022-10-24T00:19:48.438Z,97954.94
2022-10-24T00:22:14.970Z,97951.91
2022-10-24T00:24:41.459Z,97944.88
2022-10-24T00:27:09.597Z,97945.03
2022-10-24T00:29:36.327Z,97942.09
2022-10-24T00:32:02.983Z,97950.50
2022-10-24T00:34:29.733Z,97944.13
2022-10-24T00:36:56.409Z,97944.22
2022-10-24T00:39:22.984Z,97934.81
2022-10-24T00:41:49.493Z,97946.84
2022-10-24T00:44:17.604Z,97951.75
2022-10-24T00:46:51.879Z,97956.53
2022-10-24T00:49:24.280Z,97954.75
2022-10-24T00:51:57.067Z,97948.03
2022-10-24T00:54:23.756Z,97956.34
2022-10-24T00:57:11.682Z,97938.81
2022-10-24T00:59:41.931Z,97945.91
2022-10-24T01:02:08.865Z,97928.44
2022-10-24T01:04:35.399Z,97950.56
2022-10-24T01:07:24.126Z,97950.75
2022-10-24T01:10:02.896Z,97946.53
2022-10-24T01:12:44.423Z,97941.72
2022-10-24T01:15:43.383Z,97946.53
2022-10-24T01:18:17.461Z,97946.88
2022-10-24T01:21:11.417Z,97949.78
2022-10-24T01:23:40.948Z,97950.38
2022-10-24T01:26:55.583Z,97945.03
2022-10-24T01:29:27.827Z,97954.75
2022-10-24T01:32:02.880Z,97958.06
2022-10-24T01:34:41.812Z,97952.59
2022-10-24T01:37:21.859Z,97945.63
2022-10-24T01:39:53.309Z,97945.50
2022-10-24T01:42:24.047Z,97961.34
2022-10-24T01:44:56.327Z,97946.19
2022-10-24T01:47:30.747Z,97950.34
2022-10-24T01:50:02.817Z,97950.34
2022-10-24T01:52:32.991Z,97938.25
2022-10-24T01:55:00.290Z,97942.31
2022-10-24T01:57:28.764Z,97940.34
2022-10-24T01:59:55.352Z,97931.59
2022-10-24T02:02:28.167Z,97948.69
2022-10-24T02:05:06.820Z,97945.53
2022-10-24T02:07:37.030Z,97948.63
2022-10-24T02:10:15.076Z,97944.66
2022-10-24T02:12:47.204Z,97949.63
2022-10-24T02:15:26.417Z,97949.91
2022-10-24T02:17:54.672Z,97940.84
2022-10-24T02:20:33.431Z,97952.81
2022-10-24T02:23:18.578Z,97944.59
2022-10-24T02:25:48.797Z,97948.75
2022-10-24T02:28:24.268Z,97948.03
2022-10-24T02:30:57.628Z,97953.50
2022-10-24T02:33:26.523Z,97946.44
2022-10-24T02:35:54.682Z,97947.47
2022-10-24T02:38:37.140Z,97951.75
2022-10-24T02:41:09.077Z,97947.88
2022-10-24T02:43:36.171Z,97952.84
2022-10-24T02:46:04.084Z,97951.44
2022-10-24T02:48:34.911Z,97943.84
2022-10-24T02:51:02.146Z,97949.88
2022-10-24T02:53:29.135Z,97936.97
2022-10-24T02:55:56.231Z,97942.00
2022-10-24T02:58:22.923Z,97940.72
2022-10-24T03:00:49.584Z,97944.09
2022-10-24T03:03:16.200Z,97941.13
2022-10-24T03:05:42.850Z,97932.19
2022-10-24T03:08:09.403Z,97943.03
2022-10-24T03:10:35.913Z,97938.09
2022-10-24T03:13:03.666Z,97939.69
2022-10-24T03:15:30.911Z,97942.84
2022-10-24T03:17:57.424Z,97941.97
2022-10-24T03:20:24.684Z,97941.13
2022-10-24T03:22:51.712Z,97938.69
2022-10-24T03:25:18.315Z,97933.72
2022-10-24T03:27:45.095Z,97953.50
2022-10-24T03:30:12.329Z,97941.56
2022-10-24T03:32:38.844Z,97939.00
2022-10-24T03:35:08.020Z,97941.44
2022-10-24T03:37:35.671Z,97947.75
2022-10-24T03:40:02.191Z,97939.00
2022-10-24T03:42:28.729Z,97944.88
2022-10-24T03:44:55.471Z,97950.91
2022-10-24T03:47:22.106Z,97958.16
2022-10-24T03:49:48.675Z,97949.41
2022-10-24T03:52:15.205Z,97958.44
2022-10-24T03:54:41.740Z,97949.44
2022-10-24T03:57:09.981Z,97949.72
2022-10-24T03:59:37.570Z,97955.09
2022-10-24T04:02:04.237Z,97954.38
2022-10-24T04:04:30.920Z,97942.28
2022-10-24T04:06:58.564Z,97947.75
2022-10-24T04:09:25.153Z,97923.81
2022-10-24T04:11:53.545Z,97956.59
2022-10-24T04:14:22.880Z,97953.66
2022-10-24T04:16:49.840Z,97953.41
2022-10-24T04:19:19.533Z,97948.38
2022-10-24T04:21:48.095Z,97946.72
2022-10-24T04:24:15.336Z,97947.44
2022-10-24T04:26:42.321Z,97935.94
2022-10-24T04:29:08.868Z,97948.38
2022-10-24T04:31:35.401Z,97943.06
2022-10-24T04:34:02.057Z,97949.66
2022-10-24T04:36:28.636Z,97952.75
2022-10-24T04:38:55.558Z,97947.47
2022-10-24T04:41:22.341Z,97961.22
2022-10-24T04:43:48.874Z,97955.97
2022-10-24T04:46:15.470Z,97956.84
2022-10-24T04:48:42.016Z,97959.13
2022-10-24T04:51:08.589Z,97951.63
2022-10-24T04:53:35.116Z,97947.84
2022-10-24T04:56:01.827Z,97946.31
2022-10-24T04:58:28.399Z,97936.81
2022-10-24T05:00:55.146Z,97960.66
2022-10-24T05:03:23.282Z,97951.06
2022-10-24T05:05:50.166Z,97962.09
2022-10-24T05:08:17.836Z,97958.06
2022-10-24T05:10:44.915Z,97962.50
2022-10-24T05:13:11.510Z,97958.88
2022-10-24T05:15:38.375Z,97964.47
2022-10-24T05:18:04.977Z,97968.16
2022-10-24T05:20:31.638Z,97969.16
2022-10-24T05:22:58.277Z,97968.66
2022-10-24T05:25:24.811Z,97975.19
2022-10-24T05:27:51.392Z,97973.66
2022-10-24T05:30:18.122Z,97967.97
2022-10-24T05:32:44.893Z,97969.63
2022-10-24T05:35:11.845Z,97973.16
2022-10-24T05:37:39.112Z,97978.31
2022-10-24T05:40:07.709Z,97971.34
2022-10-24T05:42:34.295Z,97987.47
2022-10-24T05:45:00.808Z,97985.56
2022-10-24T05:47:29.203Z,97990.19
2022-10-24T05:49:55.954Z,97987.34
2022-10-24T05:52:25.342Z,97993.41
2022-10-24T05:54:55.823Z,97993.16
2022-10-24T05:57:33.468Z,97991.00
2022-10-24T06:00:00.727Z,97991.56
2022-10-24T06:02:27.585Z,98001.38
2022-10-24T06:04:56.197Z,97994.78
2022-10-24T06:07:22.931Z,97992.34
2022-10-24T06:09:49.440Z,97999.66
2022-10-24T06:12:16.182Z,98002.59
2022-10-24T06:14:43.000Z,98000.00
2022-10-24T06:17:09.728Z,97998.63
2022-10-24T06:19:37.059Z,97998.94
2022-10-24T06:22:04.227Z,98006.06
2022-10-24T06:24:31.076Z,98010.47
2022-10-24T06:26:57.587Z,98014.41
2022-10-24T06:29:24.156Z,98017.09
2022-10-24T06:31:50.727Z,98009.06
2022-10-24T06:34:17.282Z,98010.28
2022-10-24T06:36:43.864Z,98012.38
2022-10-24T06:39:10.386Z,98017.53
2022-10-24T06:41:36.955Z,98010.47
2022-10-24T06:44:05.786Z,98014.50
2022-10-24T06:46:35.546Z,98008.38
2022-10-24T06:49:02.098Z,98016.38
2022-10-24T06:51:28.635Z,98007.81
2022-10-24T06:53:55.209Z,98014.47
2022-10-24T06:56:21.774Z,98011.09
2022-10-24T06:58:48.307Z,98018.41
2022-10-24T07:01:20.541Z,98018.22
2022-10-24T07:03:47.593Z,98021.41
2022-10-24T07:08:57.515Z,98014.97
2022-10-24T07:11:24.453Z,98003.97
2022-10-24T07:13:53.321Z,98004.28
2022-10-24T07:16:21.916Z,98006.44
2022-10-24T07:18:48.748Z,98002.94
2022-10-24T07:21:19.049Z,98010.38
2022-10-24T07:23:45.624Z,98006.50
2022-10-24T07:26:17.810Z,98000.16
2022-10-24T07:28:46.679Z,98016.34
2022-10-24T07:31:17.475Z,97999.94
2022-10-24T07:33:44.177Z,98011.69
2022-10-24T07:36:10.737Z,97997.69
2022-10-24T07:38:37.328Z,98007.94
2022-10-24T07:41:07.155Z,98011.47
2022-10-24T07:43:33.684Z,98003.16
2022-10-24T07:48:27.898Z,98003.97
2022-10-24T07:50:54.508Z,97998.69
2022-10-24T07:53:21.039Z,97997.41
2022-10-24T07:55:47.726Z,98000.38
2022-10-24T07:58:14.333Z,97992.44
2022-10-24T08:00:44.984Z,97991.09
2022-10-24T08:03:12.210Z,97982.56
2022-10-24T08:05:40.350Z,97970.97
2022-10-24T08:10:53.962Z,97959.66
2022-10-24T08:13:20.534Z,97961.69
2022-10-24T08:15:47.126Z,97952.78
2022-10-24T08:18:13.826Z,97942.03
2022-10-24T08:20:40.406Z,97942.06
2022-10-24T08:23:06.973Z,97938.09
2022-10-24T08:25:33.600Z,97938.16
2022-10-24T08:28:01.779Z,97935.44
2022-10-24T08:30:30.584Z,97924.63
2022-10-24T08:32:57.091Z,97930.53
2022-10-24T08:35:23.692Z,97923.38
2022-10-24T08:37:50.293Z,97919.97
2022-10-24T08:40:19.413Z,97916.38
2022-10-24T08:42:48.181Z,97908.78
2022-10-24T08:45:34.260Z,97903.44
2022-10-24T08:48:27.300Z,97921.56
2022-10-24T08:51:02.536Z,97929.75
2022-10-24T08:53:30.181Z,97925.94
2022-10-24T08:56:00.091Z,97930.97
2022-10-24T08:58:28.761Z,97921.47
2022-10-24T09:00:59.298Z,97927.50
2022-10-24T09:03:54.944Z,97924.13
2022-10-24T09:06:24.290Z,97944.38
2022-10-24T09:08:58.141Z,97940.28
2022-10-24T09:11:28.633Z,97936.75
2022-10-24T09:13:55.587Z,97921.66
2022-10-24T09:16:24.355Z,97919.44
2022-10-24T09:18:54.486Z,97910.56
2022-10-24T09:21:22.804Z,97906.19
2022-10-24T09:23:51.027Z,97912.56
2022-10-24T09:26:26.443Z,97909.09
2022-10-24T09:28:55.321Z,97906.66
2022-10-24T09:31:24.753Z,97899.34
2022-10-24T09:33:52.425Z,97902.50
2022-10-24T09:36:22.313Z,97891.88
2022-10-24T09:38:49.272Z,97890.06
2022-10-24T09:41:26.392Z,97883.59
2022-10-24T09:43:58.353Z,97882.78
2022-10-24T09:46:45.837Z,97875.78
2022-10-24T09:49:12.298Z,97876.03
2022-10-24T09:51:42.496Z,97870.06
2022-10-24T09:54:17.923Z,97871.63
2022-10-24T09:56:53.584Z,97856.78
2022-10-24T09:59:34.640Z,97862.00
2022-10-24T10:02:23.166Z,97862.78
2022-10-24T10:05:04.844Z,97846.16
2022-10-24T10:07:39.926Z,97844.59
2022-10-24T10:10:22.304Z,97844.56
2022-10-24T10:13:01.736Z,97840.44
2022-10-24T10:15:39.169Z,97838.28
2022-10-24T10:18:42.444Z,97841.84
2022-10-24T10:21:16.399Z,97825.34
2022-10-24T10:23:45.676Z,97823.53
2022-10-24T10:26:27.830Z,97823.34
2022-10-24T10:29:04.730Z,97817.59
2022-10-24T10:31:45.078Z,97812.91
2022-10-24T10:34:28.742Z,97810.75
2022-10-24T10:37:23.019Z,97801.72
2022-10-24T10:39:49.464Z,97796.50
2022-10-24T10:42:51.555Z,97793.88
2022-10-24T10:45:41.045Z,97787.22
2022-10-24T10:48:32.999Z,97782.22
2022-10-24T10:51:17.421Z,97782.38
2022-10-24T10:54:04.773Z,97768.72
2022-10-24T10:57:05.454Z,97760.63
2022-10-24T10:59:48.260Z,97748.41
2022-10-24T11:02:33.337Z,97756.34
2022-10-24T11:05:37.056Z,97756.47
2022-10-24T11:08:28.263Z,97753.03
2022-10-24T11:10:59.993Z,97748.72
2022-10-24T11:13:42.176Z,97740.75
2022-10-24T11:16:14.489Z,97735.63
2022-10-24T11:18:46.513Z,97734.34
2022-10-24T11:21:16.136Z,97730.88
2022-10-24T11:24:09.837Z,97733.59
2022-10-24T11:26:56.085Z,97725.00
2022-10-24T11:29:50.712Z,97713.66
2022-10-24T11:32:32.729Z,97713.97
2022-10-24T11:35:19.893Z,97714.69
2022-10-24T11:37:52.809Z,97699.66
2022-10-24T11:40:25.134Z,97700.03
2022-10-24T11:43:13.591Z,97702.59
2022-10-24T11:45:53.580Z,97697.22
2022-10-24T11:48:25.886Z,97687.31
2022-10-24T11:51:13.068Z,97685.25
2022-10-24T11:53:52.323Z,97673.59
2022-10-24T11:56:48.154Z,97674.84
2022-10-24T11:59:24.383Z,97669.88
2022-10-24T12:02:15.905Z,97664.41
2022-10-24T12:05:09.357Z,97657.00
2022-10-24T12:08:11.321Z,97657.31
2022-10-24T12:10:45.630Z,97651.81
2022-10-24T12:13:31.653Z,97639.38
2022-10-24T12:16:16.190Z,97647.81
2022-10-24T12:18:57.667Z,97641.72
2022-10-24T12:21:27.819Z,97635.19
2022-10-24T12:24:01.498Z,97628.78
2022-10-24T12:26:33.456Z,97626.34
2022-10-24T12:29:02.585Z,97621.69
2022-10-24T12:31:31.713Z,97621.00
2022-10-24T12:34:16.680Z,97621.03
2022-10-24T12:37:04.470Z,97613.72
2022-10-24T12:39:44.407Z,97605.06
2022-10-24T12:42:24.108Z,97602.63
2022-10-24T12:44:51.609Z,97610.41
2022-10-24T12:47:33.025Z,97607.31
2022-10-24T12:50:22.155Z,97611.59
2022-10-24T12:52:48.887Z,97598.63
2022-10-24T12:55:39.329Z,97602.41
2022-10-24T12:58:24.755Z,97601.31
2022-10-24T13:01:00.802Z,97597.72
2022-10-24T13:03:53.330Z,97591.31
2022-10-24T13:06:23.599Z,97593.56
2022-10-24T13:09:04.134Z,97604.19
2022-10-24T13:11:54.245Z,97588.00
2022-10-24T13:14:46.500Z,97589.81
2022-10-24T13:17:35.802Z,97583.59
2022-10-24T13:20:04.068Z,97583.16
2022-10-24T13:22:35.808Z,97580.16
2022-10-24T13:25:19.201Z,97576.06
2022-10-24T13:27:45.890Z,97579.81
2022-10-24T13:30:25.557Z,97576.69
2022-10-24T13:33:30.107Z,97569.19
2022-10-24T13:36:07.261Z,97569.88
2022-10-24T13:38:41.773Z,97568.13
2022-10-24T13:41:12.383Z,97578.06
2022-10-24T13:43:46.587Z,97578.06
2022-10-24T13:46:31.852Z,97583.63
2022-10-24T13:49:00.537Z,97588.50
2022-10-24T13:51:44.456Z,97587.19
2022-10-24T13:54:20.034Z,97588.50
2022-10-24T13:56:48.261Z,97580.00
2022-10-24T13:59:53.320Z,97578.34
2022-10-24T14:02:23.291Z,97574.13
2022-10-24T14:04:54.848Z,97579.19
2022-10-24T14:07:28.931Z,97580.50
2022-10-24T14:10:00.451Z,97588.25
2022-10-24T14:12:30.286Z,97574.16
2022-10-24T14:14:58.908Z,97569.38
2022-10-24T14:17:35.774Z,97568.69
2022-10-24T14:20:18.706Z,97577.31
2022-10-24T14:22:45.436Z,97565.00
2022-10-24T14:25:41.708Z,97568.22
2022-10-24T14:28:16.415Z,97564.78
2022-10-24T14:31:06.244Z,97569.88
2022-10-24T14:33:43.448Z,97574.22
2022-10-24T14:36:10.569Z,97571.06
2022-10-24T14:38:37.008Z,97579.47
2022-10-24T14:41:09.665Z,97581.13
2022-10-24T14:43:41.803Z,97572.38
2022-10-24T14:46:09.067Z,97573.50
2022-10-24T14:48:36.395Z,97573.19
2022-10-24T14:51:24.801Z,97574.84
2022-10-24T14:53:51.870Z,97574.31
2022-10-24T14:56:36.999Z,97560.09
2022-10-24T14:59:18.207Z,97570.00
2022-10-24T15:02:01.529Z,97571.09
2022-10-24T15:04:38.005Z,97573.47
2022-10-24T15:07:36.291Z,97571.38
2022-10-24T15:10:42.351Z,97567.50
2022-10-24T15:13:18.257Z,97563.34
2022-10-24T15:15:57.055Z,97562.00
2022-10-24T15:18:41.258Z,97561.19
2022-10-24T15:21:15.104Z,97563.56
2022-10-24T15:24:01.280Z,97572.63
2022-10-24T15:26:40.722Z,97571.56
2022-10-24T15:29:12.915Z,97571.75
2022-10-24T15:31:42.493Z,97574.81
2022-10-24T15:34:13.135Z,97584.06
2022-10-24T15:36:41.585Z,97582.22
2022-10-24T15:39:28.354Z,97582.66
2022-10-24T15:41:55.285Z,97579.81
2022-10-24T15:44:25.676Z,97584.81
2022-10-24T15:46:52.784Z,97599.50
2022-10-24T15:49:19.689Z,97593.25
2022-10-24T15:51:50.260Z,97596.69
2022-10-24T15:54:20.988Z,97589.06
2022-10-24T15:56:48.020Z,97589.19
2022-10-24T15:59:14.668Z,97592.63
2022-10-24T16:01:57.303Z,97591.06
2022-10-24T16:04:24.205Z,97600.78
2022-10-24T16:06:51.319Z,97596.38
2022-10-24T16:09:21.563Z,97606.81
2022-10-24T16:11:48.343Z,97608.34
2022-10-24T16:14:16.881Z,97606.13
2022-10-24T16:16:43.448Z,97611.03
2022-10-24T16:19:10.665Z,97611.97
2022-10-24T16:21:40.184Z,97605.63
2022-10-24T16:24:08.041Z,97618.06
2022-10-24T16:26:34.768Z,97620.06
2022-10-24T16:29:01.285Z,97618.38
2022-10-24T16:31:27.856Z,97615.78
2022-10-24T16:33:54.378Z,97609.53
2022-10-24T16:36:24.547Z,97594.31
2022-10-24T16:38:51.759Z,97609.06
2022-10-24T16:41:21.968Z,97610.69
2022-10-24T16:43:49.968Z,97614.81
2022-10-24T16:46:19.365Z,97623.03
2022-10-24T16:48:46.796Z,97612.22
2022-10-24T16:51:15.035Z,97622.69
2022-10-24T16:53:42.024Z,97622.78
2022-10-24T16:56:11.238Z,97636.56
2022-10-24T16:58:38.734Z,97630.50
2022-10-24T17:01:08.831Z,97626.56
2022-10-24T17:03:36.426Z,97636.13
2022-10-24T17:06:04.077Z,97630.25
2022-10-24T17:08:31.117Z,97642.72
2022-10-24T17:10:58.170Z,97641.53
2022-10-24T17:13:25.228Z,97650.28
2022-10-24T17:15:52.091Z,97642.53
2022-10-24T17:18:20.531Z,97654.50
2022-10-24T17:20:47.980Z,97650.97
2022-10-24T17:23:20.673Z,97646.44
2022-10-24T17:25:47.617Z,97653.84
2022-10-24T17:28:15.839Z,97657.63
2022-10-24T17:30:42.843Z,97657.56
2022-10-24T17:33:13.418Z,97653.06
2022-10-24T17:35:45.872Z,97652.44
2022-10-24T17:38:24.097Z,97661.97
2022-10-24T17:40:50.899Z,97652.03
2022-10-24T17:43:23.326Z,97660.75
2022-10-24T17:45:50.461Z,97653.84
2022-10-24T17:48:17.730Z,97656.69
2022-10-24T17:50:44.673Z,97654.22
2022-10-24T17:53:12.917Z,97653.78
2022-10-24T17:55:46.168Z,97660.19
2022-10-24T17:58:13.944Z,97653.34
2022-10-24T18:00:40.498Z,97662.78
2022-10-24T18:03:08.684Z,97658.38
2022-10-24T18:05:38.041Z,97662.50
2022-10-24T18:08:07.474Z,97657.16
2022-10-24T18:10:35.977Z,97660.28
2022-10-24T18:13:02.491Z,97652.78
2022-10-24T18:15:29.084Z,97663.47
2022-10-24T18:17:55.620Z,97654.06
2022-10-24T18:20:22.229Z,97658.75
2022-10-24T18:22:49.239Z,97653.28
2022-10-24T18:25:20.262Z,97657.56
2022-10-24T18:27:49.957Z,97660.69
2022-10-24T18:30:16.931Z,97674.19
2022-10-24T18:32:44.568Z,97667.75
2022-10-24T18:35:11.804Z,97674.47
2022-10-24T18:37:39.080Z,97672.59
2022-10-24T18:40:06.836Z,97667.56
2022-10-24T18:43:00.985Z,97672.72
2022-10-24T18:45:28.246Z,97669.13
2022-10-24T18:47:55.162Z,97667.88
2022-10-24T18:50:23.918Z,97658.16
2022-10-24T18:53:08.387Z,97680.75
2022-10-24T18:55:35.581Z,97671.16
2022-10-24T18:58:02.668Z,97669.44
2022-10-24T19:00:31.779Z,97672.25
2022-10-24T19:03:21.792Z,97668.81
2022-10-24T19:05:54.848Z,97668.03
2022-10-24T19:08:23.871Z,97664.09
2022-10-24T19:10:53.339Z,97665.66
2022-10-24T19:13:20.073Z,97665.34
2022-10-24T19:15:57.947Z,97666.63
2022-10-24T19:18:25.767Z,97667.69
2022-10-24T19:20:52.327Z,97661.09
2022-10-24T19:23:18.968Z,97664.38
2022-10-24T19:25:45.779Z,97666.72
2022-10-24T19:28:16.661Z,97675.06
2022-10-24T19:30:44.806Z,97676.16
2022-10-24T19:33:12.927Z,97668.91
2022-10-24T19:35:45.213Z,97676.44
2022-10-24T19:38:11.740Z,97673.81
2022-10-24T19:40:45.254Z,97671.75
2022-10-24T19:43:11.873Z,97681.06
2022-10-24T19:45:45.586Z,97689.00
2022-10-24T19:48:17.634Z,97682.31
2022-10-24T19:50:44.204Z,97683.88
2022-10-24T19:53:13.179Z,97687.91
2022-10-24T19:55:40.653Z,97686.25
2022-10-24T19:58:14.859Z,97692.94
2022-10-24T20:00:42.149Z,97695.09
2022-10-24T20:03:08.681Z,97690.06
2022-10-24T20:05:36.230Z,97701.28
2022-10-24T20:08:02.989Z,97692.25
2022-10-24T20:10:29.582Z,97692.91
2022-10-24T20:12:56.171Z,97692.91
2022-10-24T20:15:22.683Z,97704.28
2022-10-24T20:17:49.188Z,97697.13
2022-10-24T20:20:15.768Z,97700.66
2022-10-24T20:22:42.281Z,97701.19
2022-10-24T20:25:08.861Z,97707.56
2022-10-24T20:27:38.771Z,97701.25
2022-10-24T20:30:05.788Z,97706.88
2022-10-24T20:32:32.298Z,97700.28
2022-10-24T20:34:58.798Z,97708.28
2022-10-24T20:37:25.318Z,97709.97
2022-10-24T20:39:51.824Z,97713.84
2022-10-24T20:42:20.218Z,97707.97
2022-10-24T20:44:46.741Z,97712.97
2022-10-24T20:47:13.243Z,97711.22
2022-10-24T20:49:39.777Z,97712.06
2022-10-24T20:52:06.362Z,97709.91
2022-10-24T20:54:33.069Z,97703.38
2022-10-24T20:57:00.021Z,97702.50
2022-10-24T20:59:26.539Z,97701.25
2022-10-24T21:01:53.238Z,97708.41
2022-10-24T21:04:20.951Z,97699.22
2022-10-24T21:06:47.709Z,97704.41
2022-10-24T21:09:15.129Z,97701.56
2022-10-24T21:11:41.551Z,97704.50
2022-10-24T21:14:11.714Z,97707.53
2022-10-24T21:16:38.239Z,97710.69
2022-10-24T21:19:04.892Z,97706.66
2022-10-24T21:21:31.644Z,97704.16
2022-10-24T21:24:03.958Z,97704.16
2022-10-24T21:26:39.549Z,97703.19
2022-10-24T21:29:31.774Z,97708.66
2022-10-24T21:31:53.430Z,97714.41
2022-10-24T21:34:20.851Z,97703.28
2022-10-24T21:36:47.296Z,97712.72
2022-10-24T21:39:17.399Z,97711.47
2022-10-24T21:41:44.563Z,97706.88
2022-10-24T21:44:11.723Z,97712.09
2022-10-24T21:46:38.293Z,97700.38
2022-10-24T21:49:04.853Z,97700.16
2022-10-24T21:51:37.031Z,97705.06
2022-10-24T21:54:06.679Z,97701.06
2022-10-24T21:56:36.766Z,97696.66
2022-10-24T21:59:05.707Z,97700.84
2022-10-24T22:01:35.580Z,97697.91
2022-10-24T22:04:02.449Z,97701.59
2022-10-24T22:06:30.398Z,97702.06
2022-10-24T22:08:57.975Z,97699.94
2022-10-24T22:11:27.350Z,97695.22
2022-10-24T22:13:53.999Z,97696.66
2022-10-24T22:16:22.779Z,97698.25
2022-10-24T22:18:50.324Z,97695.31
2022-10-24T22:21:27.009Z,97692.06
2022-10-24T22:23:58.262Z,97700.25
2022-10-24T22:26:25.449Z,97695.22
2022-10-24T22:28:52.448Z,97688.91
2022-10-24T22:31:19.211Z,97694.78
2022-10-24T22:33:45.780Z,97701.94
2022-10-24T22:36:36.546Z,97691.28
2022-10-24T22:39:04.384Z,97683.06
2022-10-24T22:41:31.373Z,97697.25
2022-10-24T22:43:58.205Z,97698.13
2022-10-24T22:46:36.522Z,97694.31
2022-10-24T22:49:25.690Z,97681.41
2022-10-24T22:51:52.467Z,97686.22
2022-10-24T22:54:24.690Z,97682.19
2022-10-24T22:56:51.842Z,97690.63
2022-10-24T22:59:18.735Z,97682.63
2022-10-24T23:02:09.929Z,97680.38
2022-10-24T23:04:41.152Z,97680.47
2022-10-24T23:07:13.586Z,97688.69
2022-10-24T23:09:40.483Z,97696.75
2022-10-24T23:12:15.089Z,97696.13
2022-10-24T23:14:42.327Z,97693.69
2022-10-24T23:17:11.483Z,97696.94
2022-10-24T23:19:43.329Z,97699.50
2022-10-24T23:22:31.098Z,97697.13
2022-10-24T23:25:00.343Z,97692.28
2022-10-24T23:27:39.286Z,97689.38
2022-10-24T23:30:17.857Z,97693.00
2022-10-24T23:32:45.338Z,97695.97
2022-10-24T23:35:13.407Z,97692.53
2022-10-24T23:37:43.403Z,97698.03
2022-10-24T23:40:22.159Z,97695.56
2022-10-24T23:42:49.979Z,97698.59
2022-10-24T23:45:28.665Z,97696.22
2022-10-24T23:48:08.627Z,97699.28
2022-10-24T23:50:48.816Z,97695.34
2022-10-24T23:53:18.183Z,97691.78
2022-10-24T23:55:45.240Z,97690.53
2022-10-24T23:58:12.072Z,97694.81
